sensor_id;sensor_type;location;lat;lon;timestamp;P1;durP1;ratioP1;P2;durP2;ratioP2
17763;SDS011;22245;52.832;13.816;2023-04-15T00:02:50;44.90;;;24.00;;
17763;SDS011;22245;52.832;13.816;2023-04-15T00:06:12;44.97;;;24.73;;
17763;SDS011;22245;52.832;13.816;2023-04-15T00:09:35;43.93;;;23.90;;
17763;SDS011;22245;52.832;13.816;2023-04-15T00:12:57;45.40;;;25.17;;
17763;SDS011;22245;52.832;13.816;2023-04-15T00:16:18;50.00;;;27.97;;
17763;SDS011;22245;52.832;13.816;2023-04-15T00:19:40;46.67;;;26.30;;
17763;SDS011;22245;52.832;13.816;2023-04-15T00:23:04;48.00;;;25.47;;
17763;SDS011;22245;52.832;13.816;2023-04-15T00:26:27;46.90;;;25.30;;
17763;SDS011;22245;52.832;13.816;2023-04-15T00:29:49;44.27;;;23.60;;
17763;SDS011;22245;52.832;13.816;2023-04-15T00:33:11;45.03;;;24.03;;
17763;SDS011;22245;52.832;13.816;2023-04-15T00:36:33;43.57;;;23.90;;
17763;SDS011;22245;52.832;13.816;2023-04-15T00:39:56;45.33;;;24.53;;
17763;SDS011;22245;52.832;13.816;2023-04-15T00:43:19;45.07;;;24.57;;
17763;SDS011;22245;52.832;13.816;2023-04-15T00:46:40;44.90;;;24.83;;
17763;SDS011;22245;52.832;13.816;2023-04-15T00:50:04;42.17;;;23.73;;
17763;SDS011;22245;52.832;13.816;2023-04-15T00:53:27;44.67;;;23.40;;
17763;SDS011;22245;52.832;13.816;2023-04-15T00:56:49;40.20;;;21.83;;
17763;SDS011;22245;52.832;13.816;2023-04-15T01:00:14;37.83;;;20.90;;
17763;SDS011;22245;52.832;13.816;2023-04-15T01:03:36;40.27;;;22.27;;
17763;SDS011;22245;52.832;13.816;2023-04-15T01:06:57;41.43;;;22.20;;
17763;SDS011;22245;52.832;13.816;2023-04-15T01:10:19;40.07;;;22.83;;
17763;SDS011;22245;52.832;13.816;2023-04-15T01:13:41;40.43;;;22.57;;
17763;SDS011;22245;52.832;13.816;2023-04-15T01:17:05;40.83;;;22.73;;
17763;SDS011;22245;52.832;13.816;2023-04-15T01:20:26;39.77;;;22.37;;
17763;SDS011;22245;52.832;13.816;2023-04-15T01:23:49;37.00;;;20.67;;
17763;SDS011;22245;52.832;13.816;2023-04-15T01:27:15;39.33;;;22.10;;
17763;SDS011;22245;52.832;13.816;2023-04-15T01:30:37;39.50;;;21.77;;
17763;SDS011;22245;52.832;13.816;2023-04-15T01:33:59;37.40;;;21.30;;
17763;SDS011;22245;52.832;13.816;2023-04-15T01:37:21;37.70;;;20.63;;
17763;SDS011;22245;52.832;13.816;2023-04-15T01:40:43;36.50;;;21.13;;
17763;SDS011;22245;52.832;13.816;2023-04-15T01:44:06;37.80;;;20.90;;
17763;SDS011;22245;52.832;13.816;2023-04-15T01:47:28;36.23;;;20.47;;
17763;SDS011;22245;52.832;13.816;2023-04-15T01:50:51;36.40;;;21.13;;
17763;SDS011;22245;52.832;13.816;2023-04-15T01:54:13;36.30;;;20.83;;
17763;SDS011;22245;52.832;13.816;2023-04-15T01:57:35;36.80;;;21.40;;
17763;SDS011;22245;52.832;13.816;2023-04-15T02:01:00;37.80;;;21.63;;
17763;SDS011;22245;52.832;13.816;2023-04-15T02:04:24;38.03;;;21.23;;
17763;SDS011;22245;52.832;13.816;2023-04-15T02:07:47;35.70;;;20.73;;
17763;SDS011;22245;52.832;13.816;2023-04-15T02:11:09;36.37;;;20.93;;
17763;SDS011;22245;52.832;13.816;2023-04-15T02:14:31;33.63;;;20.17;;
17763;SDS011;22245;52.832;13.816;2023-04-15T02:17:54;33.23;;;20.13;;
17763;SDS011;22245;52.832;13.816;2023-04-15T02:21:16;35.00;;;19.63;;
17763;SDS011;22245;52.832;13.816;2023-04-15T02:24:38;34.70;;;20.13;;
17763;SDS011;22245;52.832;13.816;2023-04-15T02:28:02;36.80;;;20.38;;
17763;SDS011;22245;52.832;13.816;2023-04-15T02:31:25;33.17;;;19.83;;
17763;SDS011;22245;52.832;13.816;2023-04-15T02:34:49;32.87;;;19.33;;
17763;SDS011;22245;52.832;13.816;2023-04-15T02:38:10;35.83;;;20.23;;
17763;SDS011;22245;52.832;13.816;2023-04-15T02:41:33;31.93;;;19.67;;
17763;SDS011;22245;52.832;13.816;2023-04-15T02:44:56;33.90;;;19.53;;
17763;SDS011;22245;52.832;13.816;2023-04-15T02:48:23;32.10;;;19.03;;
17763;SDS011;22245;52.832;13.816;2023-04-15T02:51:46;32.97;;;19.63;;
17763;SDS011;22245;52.832;13.816;2023-04-15T02:55:08;31.17;;;19.30;;
17763;SDS011;22245;52.832;13.816;2023-04-15T02:58:30;30.93;;;18.73;;
17763;SDS011;22245;52.832;13.816;2023-04-15T03:01:51;30.70;;;18.47;;
17763;SDS011;22245;52.832;13.816;2023-04-15T03:05:14;32.23;;;18.33;;
17763;SDS011;22245;52.832;13.816;2023-04-15T03:08:42;36.67;;;19.00;;
17763;SDS011;22245;52.832;13.816;2023-04-15T03:12:05;34.93;;;19.30;;
17763;SDS011;22245;52.832;13.816;2023-04-15T03:15:27;31.60;;;18.77;;
17763;SDS011;22245;52.832;13.816;2023-04-15T03:18:49;30.03;;;18.40;;
17763;SDS011;22245;52.832;13.816;2023-04-15T03:22:12;31.60;;;18.30;;
17763;SDS011;22245;52.832;13.816;2023-04-15T03:25:35;32.77;;;18.50;;
17763;SDS011;22245;52.832;13.816;2023-04-15T03:28:59;29.03;;;18.10;;
17763;SDS011;22245;52.832;13.816;2023-04-15T03:32:21;26.48;;;17.42;;
17763;SDS011;22245;52.832;13.816;2023-04-15T03:35:43;28.57;;;17.97;;
17763;SDS011;22245;52.832;13.816;2023-04-15T03:39:05;31.07;;;18.60;;
17763;SDS011;22245;52.832;13.816;2023-04-15T03:42:28;26.00;;;17.33;;
17763;SDS011;22245;52.832;13.816;2023-04-15T03:45:50;25.38;;;16.92;;
17763;SDS011;22245;52.832;13.816;2023-04-15T03:49:12;26.27;;;17.27;;
17763;SDS011;22245;52.832;13.816;2023-04-15T03:52:34;27.67;;;17.02;;
17763;SDS011;22245;52.832;13.816;2023-04-15T03:55:56;26.50;;;15.93;;
17763;SDS011;22245;52.832;13.816;2023-04-15T03:59:20;25.83;;;16.43;;
17763;SDS011;22245;52.832;13.816;2023-04-15T04:02:41;26.03;;;16.40;;
17763;SDS011;22245;52.832;13.816;2023-04-15T04:06:05;27.45;;;17.00;;
17763;SDS011;22245;52.832;13.816;2023-04-15T04:09:27;24.70;;;15.93;;
17763;SDS011;22245;52.832;13.816;2023-04-15T04:12:48;23.97;;;15.17;;
17763;SDS011;22245;52.832;13.816;2023-04-15T04:16:11;24.60;;;15.27;;
17763;SDS011;22245;52.832;13.816;2023-04-15T04:19:33;26.63;;;16.52;;
17763;SDS011;22245;52.832;13.816;2023-04-15T04:22:54;22.42;;;15.43;;
17763;SDS011;22245;52.832;13.816;2023-04-15T04:26:16;25.83;;;15.63;;
17763;SDS011;22245;52.832;13.816;2023-04-15T04:29:38;24.30;;;15.37;;
17763;SDS011;22245;52.832;13.816;2023-04-15T04:33:02;21.47;;;15.33;;
17763;SDS011;22245;52.832;13.816;2023-04-15T04:36:24;21.75;;;14.45;;
17763;SDS011;22245;52.832;13.816;2023-04-15T04:39:46;22.30;;;14.55;;
17763;SDS011;22245;52.832;13.816;2023-04-15T04:43:08;21.03;;;13.63;;
17763;SDS011;22245;52.832;13.816;2023-04-15T04:46:30;21.77;;;13.90;;
17763;SDS011;22245;52.832;13.816;2023-04-15T04:49:53;21.00;;;12.80;;
17763;SDS011;22245;52.832;13.816;2023-04-15T04:53:15;17.93;;;11.73;;
17763;SDS011;22245;52.832;13.816;2023-04-15T04:56:37;19.52;;;12.25;;
17763;SDS011;22245;52.832;13.816;2023-04-15T04:59:58;19.05;;;12.45;;
17763;SDS011;22245;52.832;13.816;2023-04-15T05:03:21;18.65;;;11.90;;
17763;SDS011;22245;52.832;13.816;2023-04-15T05:06:44;18.77;;;11.80;;
17763;SDS011;22245;52.832;13.816;2023-04-15T05:10:07;17.60;;;11.53;;
17763;SDS011;22245;52.832;13.816;2023-04-15T05:13:29;19.10;;;11.82;;
17763;SDS011;22245;52.832;13.816;2023-04-15T05:16:51;18.47;;;11.50;;
17763;SDS011;22245;52.832;13.816;2023-04-15T05:20:12;17.23;;;11.77;;
17763;SDS011;22245;52.832;13.816;2023-04-15T05:23:35;17.88;;;12.10;;
17763;SDS011;22245;52.832;13.816;2023-04-15T05:26:57;15.20;;;11.13;;
17763;SDS011;22245;52.832;13.816;2023-04-15T05:30:20;15.38;;;11.07;;
17763;SDS011;22245;52.832;13.816;2023-04-15T05:33:42;14.57;;;11.10;;
17763;SDS011;22245;52.832;13.816;2023-04-15T05:37:04;17.85;;;11.73;;
17763;SDS011;22245;52.832;13.816;2023-04-15T05:40:28;17.52;;;11.73;;
17763;SDS011;22245;52.832;13.816;2023-04-15T05:43:50;17.35;;;11.30;;
17763;SDS011;22245;52.832;13.816;2023-04-15T05:47:12;16.92;;;11.98;;
17763;SDS011;22245;52.832;13.816;2023-04-15T05:50:34;15.05;;;11.00;;
17763;SDS011;22245;52.832;13.816;2023-04-15T05:53:56;15.05;;;11.02;;
17763;SDS011;22245;52.832;13.816;2023-04-15T05:57:19;17.50;;;11.55;;
17763;SDS011;22245;52.832;13.816;2023-04-15T06:00:41;15.05;;;11.13;;
17763;SDS011;22245;52.832;13.816;2023-04-15T06:04:02;15.73;;;11.38;;
17763;SDS011;22245;52.832;13.816;2023-04-15T06:07:24;17.60;;;11.60;;
17763;SDS011;22245;52.832;13.816;2023-04-15T06:10:46;16.58;;;11.57;;
17763;SDS011;22245;52.832;13.816;2023-04-15T06:14:09;15.10;;;11.63;;
17763;SDS011;22245;52.832;13.816;2023-04-15T06:17:30;15.02;;;10.55;;
17763;SDS011;22245;52.832;13.816;2023-04-15T06:20:52;17.20;;;11.90;;
17763;SDS011;22245;52.832;13.816;2023-04-15T06:24:14;17.42;;;11.52;;
17763;SDS011;22245;52.832;13.816;2023-04-15T06:27:35;17.40;;;12.15;;
17763;SDS011;22245;52.832;13.816;2023-04-15T06:30:59;17.02;;;12.23;;
17763;SDS011;22245;52.832;13.816;2023-04-15T06:34:21;17.55;;;11.90;;
17763;SDS011;22245;52.832;13.816;2023-04-15T06:37:43;18.23;;;11.82;;
17763;SDS011;22245;52.832;13.816;2023-04-15T06:41:04;16.27;;;11.55;;
17763;SDS011;22245;52.832;13.816;2023-04-15T06:44:26;15.95;;;11.40;;
17763;SDS011;22245;52.832;13.816;2023-04-15T06:47:49;16.92;;;11.65;;
17763;SDS011;22245;52.832;13.816;2023-04-15T06:51:11;17.23;;;11.82;;
17763;SDS011;22245;52.832;13.816;2023-04-15T06:54:32;16.92;;;11.73;;
17763;SDS011;22245;52.832;13.816;2023-04-15T06:57:54;20.92;;;12.05;;
17763;SDS011;22245;52.832;13.816;2023-04-15T07:01:16;16.95;;;11.70;;
17763;SDS011;22245;52.832;13.816;2023-04-15T07:04:39;14.70;;;11.50;;
17763;SDS011;22245;52.832;13.816;2023-04-15T07:08:01;15.27;;;11.70;;
17763;SDS011;22245;52.832;13.816;2023-04-15T07:11:24;15.88;;;11.88;;
17763;SDS011;22245;52.832;13.816;2023-04-15T07:14:45;16.50;;;11.57;;
17763;SDS011;22245;52.832;13.816;2023-04-15T07:18:08;15.02;;;11.57;;
17763;SDS011;22245;52.832;13.816;2023-04-15T07:21:31;17.23;;;11.63;;
17763;SDS011;22245;52.832;13.816;2023-04-15T07:24:53;15.45;;;11.57;;
17763;SDS011;22245;52.832;13.816;2023-04-15T07:28:14;17.83;;;12.30;;
17763;SDS011;22245;52.832;13.816;2023-04-15T07:31:36;15.82;;;11.13;;
17763;SDS011;22245;52.832;13.816;2023-04-15T07:34:58;13.73;;;10.82;;
17763;SDS011;22245;52.832;13.816;2023-04-15T07:38:22;14.45;;;11.40;;
17763;SDS011;22245;52.832;13.816;2023-04-15T07:41:43;15.52;;;11.75;;
17763;SDS011;22245;52.832;13.816;2023-04-15T07:45:06;17.90;;;12.05;;
17763;SDS011;22245;52.832;13.816;2023-04-15T07:48:28;15.27;;;11.20;;
17763;SDS011;22245;52.832;13.816;2023-04-15T07:51:50;17.00;;;12.25;;
17763;SDS011;22245;52.832;13.816;2023-04-15T07:55:13;20.00;;;12.02;;
17763;SDS011;22245;52.832;13.816;2023-04-15T07:58:38;17.80;;;11.82;;
17763;SDS011;22245;52.832;13.816;2023-04-15T08:02:00;17.15;;;11.50;;
17763;SDS011;22245;52.832;13.816;2023-04-15T08:05:22;15.68;;;11.07;;
17763;SDS011;22245;52.832;13.816;2023-04-15T08:08:44;16.95;;;12.27;;
17763;SDS011;22245;52.832;13.816;2023-04-15T08:12:08;19.15;;;12.18;;
17763;SDS011;22245;52.832;13.816;2023-04-15T08:15:32;15.27;;;11.20;;
17763;SDS011;22245;52.832;13.816;2023-04-15T08:18:54;21.15;;;12.40;;
17763;SDS011;22245;52.832;13.816;2023-04-15T08:22:17;18.90;;;12.38;;
17763;SDS011;22245;52.832;13.816;2023-04-15T08:25:41;16.95;;;11.75;;
17763;SDS011;22245;52.832;13.816;2023-04-15T08:29:05;17.02;;;12.32;;
17763;SDS011;22245;52.832;13.816;2023-04-15T08:32:26;16.80;;;12.35;;
17763;SDS011;22245;52.832;13.816;2023-04-15T08:35:49;18.48;;;12.02;;
17763;SDS011;22245;52.832;13.816;2023-04-15T08:39:10;14.82;;;11.25;;
17763;SDS011;22245;52.832;13.816;2023-04-15T08:42:36;17.75;;;12.07;;
17763;SDS011;22245;52.832;13.816;2023-04-15T08:46:05;16.85;;;11.90;;
17763;SDS011;22245;52.832;13.816;2023-04-15T08:49:27;16.20;;;11.85;;
17763;SDS011;22245;52.832;13.816;2023-04-15T08:52:52;15.73;;;11.63;;
17763;SDS011;22245;52.832;13.816;2023-04-15T08:56:14;17.90;;;11.95;;
17763;SDS011;22245;52.832;13.816;2023-04-15T08:59:37;18.30;;;12.85;;
17763;SDS011;22245;52.832;13.816;2023-04-15T09:03:01;18.10;;;12.80;;
17763;SDS011;22245;52.832;13.816;2023-04-15T09:06:25;16.52;;;11.57;;
17763;SDS011;22245;52.832;13.816;2023-04-15T09:09:47;15.10;;;11.85;;
17763;SDS011;22245;52.832;13.816;2023-04-15T09:13:10;20.38;;;12.27;;
17763;SDS011;22245;52.832;13.816;2023-04-15T09:20:19;15.70;;;10.85;;
17763;SDS011;22245;52.832;13.816;2023-04-15T09:23:52;16.10;;;11.38;;
17763;SDS011;22245;52.832;13.816;2023-04-15T09:27:15;19.98;;;12.13;;
17763;SDS011;22245;52.832;13.816;2023-04-15T09:30:37;17.17;;;11.30;;
17763;SDS011;22245;52.832;13.816;2023-04-15T09:33:59;16.63;;;11.60;;
17763;SDS011;22245;52.832;13.816;2023-04-15T09:37:34;17.17;;;11.45;;
17763;SDS011;22245;52.832;13.816;2023-04-15T09:40:56;15.27;;;11.27;;
17763;SDS011;22245;52.832;13.816;2023-04-15T09:44:22;16.33;;;11.32;;
17763;SDS011;22245;52.832;13.816;2023-04-15T09:47:43;16.77;;;10.70;;
17763;SDS011;22245;52.832;13.816;2023-04-15T09:51:05;15.60;;;11.15;;
17763;SDS011;22245;52.832;13.816;2023-04-15T09:54:36;15.13;;;11.10;;
17763;SDS011;22245;52.832;13.816;2023-04-15T09:57:58;14.63;;;11.32;;
17763;SDS011;22245;52.832;13.816;2023-04-15T10:01:20;15.10;;;10.80;;
17763;SDS011;22245;52.832;13.816;2023-04-15T10:04:42;14.93;;;11.27;;
17763;SDS011;22245;52.832;13.816;2023-04-15T10:08:06;15.30;;;11.50;;
17763;SDS011;22245;52.832;13.816;2023-04-15T10:11:31;16.10;;;11.95;;
17763;SDS011;22245;52.832;13.816;2023-04-15T10:14:55;15.93;;;10.95;;
17763;SDS011;22245;52.832;13.816;2023-04-15T10:18:19;15.75;;;11.40;;
17763;SDS011;22245;52.832;13.816;2023-04-15T10:21:43;16.35;;;11.75;;
17763;SDS011;22245;52.832;13.816;2023-04-15T10:25:06;15.98;;;11.73;;
17763;SDS011;22245;52.832;13.816;2023-04-15T10:28:30;17.40;;;11.98;;
17763;SDS011;22245;52.832;13.816;2023-04-15T10:31:53;13.63;;;11.35;;
17763;SDS011;22245;52.832;13.816;2023-04-15T10:35:16;15.70;;;11.82;;
17763;SDS011;22245;52.832;13.816;2023-04-15T10:38:38;16.23;;;11.30;;
17763;SDS011;22245;52.832;13.816;2023-04-15T10:42:05;17.48;;;12.05;;
17763;SDS011;22245;52.832;13.816;2023-04-15T10:45:32;19.08;;;12.13;;
17763;SDS011;22245;52.832;13.816;2023-04-15T10:48:55;16.02;;;11.85;;
17763;SDS011;22245;52.832;13.816;2023-04-15T10:52:25;14.63;;;10.98;;
17763;SDS011;22245;52.832;13.816;2023-04-15T10:55:47;17.08;;;11.00;;
17763;SDS011;22245;52.832;13.816;2023-04-15T10:59:09;17.10;;;11.75;;
17763;SDS011;22245;52.832;13.816;2023-04-15T11:02:43;14.68;;;11.40;;
17763;SDS011;22245;52.832;13.816;2023-04-15T11:06:07;16.25;;;11.60;;
17763;SDS011;22245;52.832;13.816;2023-04-15T11:09:29;15.80;;;11.55;;
17763;SDS011;22245;52.832;13.816;2023-04-15T11:12:54;20.45;;;12.05;;
17763;SDS011;22245;52.832;13.816;2023-04-15T11:16:18;15.90;;;11.75;;
17763;SDS011;22245;52.832;13.816;2023-04-15T11:19:42;20.33;;;13.35;;
17763;SDS011;22245;52.832;13.816;2023-04-15T11:23:03;17.95;;;13.77;;
17763;SDS011;22245;52.832;13.816;2023-04-15T11:26:34;19.35;;;13.52;;
17763;SDS011;22245;52.832;13.816;2023-04-15T11:29:56;17.95;;;12.95;;
17763;SDS011;22245;52.832;13.816;2023-04-15T11:33:18;17.70;;;12.85;;
17763;SDS011;22245;52.832;13.816;2023-04-15T11:36:41;18.02;;;12.88;;
17763;SDS011;22245;52.832;13.816;2023-04-15T11:40:04;20.42;;;13.15;;
17763;SDS011;22245;52.832;13.816;2023-04-15T11:43:28;21.27;;;13.02;;
17763;SDS011;22245;52.832;13.816;2023-04-15T11:46:54;20.42;;;12.93;;
17763;SDS011;22245;52.832;13.816;2023-04-15T11:50:16;18.42;;;12.32;;
17763;SDS011;22245;52.832;13.816;2023-04-15T11:53:41;17.80;;;12.57;;
17763;SDS011;22245;52.832;13.816;2023-04-15T11:57:04;19.63;;;12.85;;
17763;SDS011;22245;52.832;13.816;2023-04-15T12:00:27;18.83;;;13.07;;
17763;SDS011;22245;52.832;13.816;2023-04-15T12:03:49;15.77;;;12.15;;
17763;SDS011;22245;52.832;13.816;2023-04-15T12:07:11;20.17;;;13.80;;
17763;SDS011;22245;52.832;13.816;2023-04-15T12:10:34;17.65;;;12.57;;
17763;SDS011;22245;52.832;13.816;2023-04-15T12:13:57;16.33;;;12.27;;
17763;SDS011;22245;52.832;13.816;2023-04-15T12:17:19;16.88;;;11.98;;
17763;SDS011;22245;52.832;13.816;2023-04-15T12:20:43;18.17;;;11.82;;
17763;SDS011;22245;52.832;13.816;2023-04-15T12:24:07;14.40;;;11.07;;
17763;SDS011;22245;52.832;13.816;2023-04-15T12:27:31;13.65;;;10.90;;
17763;SDS011;22245;52.832;13.816;2023-04-15T12:30:55;14.18;;;10.88;;
17763;SDS011;22245;52.832;13.816;2023-04-15T12:34:16;15.05;;;11.50;;
17763;SDS011;22245;52.832;13.816;2023-04-15T12:37:39;15.43;;;11.35;;
17763;SDS011;22245;52.832;13.816;2023-04-15T12:41:00;13.20;;;10.02;;
17763;SDS011;22245;52.832;13.816;2023-04-15T12:44:24;13.85;;;10.35;;
17763;SDS011;22245;52.832;13.816;2023-04-15T12:47:47;14.90;;;11.45;;
17763;SDS011;22245;52.832;13.816;2023-04-15T12:51:08;15.23;;;10.80;;
17763;SDS011;22245;52.832;13.816;2023-04-15T12:54:30;12.75;;;10.52;;
17763;SDS011;22245;52.832;13.816;2023-04-15T12:57:52;14.18;;;10.48;;
17763;SDS011;22245;52.832;13.816;2023-04-15T13:01:15;14.52;;;10.07;;
17763;SDS011;22245;52.832;13.816;2023-04-15T13:04:37;13.18;;;10.35;;
17763;SDS011;22245;52.832;13.816;2023-04-15T13:07:59;12.50;;;10.05;;
17763;SDS011;22245;52.832;13.816;2023-04-15T13:11:21;14.02;;;10.75;;
17763;SDS011;22245;52.832;13.816;2023-04-15T13:14:43;12.45;;;10.15;;
17763;SDS011;22245;52.832;13.816;2023-04-15T13:18:07;11.90;;;9.05;;
17763;SDS011;22245;52.832;13.816;2023-04-15T13:21:28;11.48;;;9.27;;
17763;SDS011;22245;52.832;13.816;2023-04-15T13:24:54;11.50;;;9.15;;
17763;SDS011;22245;52.832;13.816;2023-04-15T13:28:16;11.40;;;9.18;;
17763;SDS011;22245;52.832;13.816;2023-04-15T13:31:38;10.57;;;8.45;;
17763;SDS011;22245;52.832;13.816;2023-04-15T13:35:01;9.77;;;7.90;;
17763;SDS011;22245;52.832;13.816;2023-04-15T13:38:24;10.18;;;7.97;;
17763;SDS011;22245;52.832;13.816;2023-04-15T13:41:45;11.07;;;8.35;;
17763;SDS011;22245;52.832;13.816;2023-04-15T13:45:08;10.65;;;7.95;;
17763;SDS011;22245;52.832;13.816;2023-04-15T13:48:30;10.57;;;8.40;;
17763;SDS011;22245;52.832;13.816;2023-04-15T13:51:53;11.00;;;8.00;;
17763;SDS011;22245;52.832;13.816;2023-04-15T13:55:15;11.18;;;8.32;;
17763;SDS011;22245;52.832;13.816;2023-04-15T13:58:40;9.93;;;8.02;;
17763;SDS011;22245;52.832;13.816;2023-04-15T14:02:02;12.43;;;8.55;;
17763;SDS011;22245;52.832;13.816;2023-04-15T14:05:24;12.38;;;9.23;;
17763;SDS011;22245;52.832;13.816;2023-04-15T14:08:47;10.15;;;8.18;;
17763;SDS011;22245;52.832;13.816;2023-04-15T14:12:09;13.25;;;8.60;;
17763;SDS011;22245;52.832;13.816;2023-04-15T14:18:53;10.38;;;8.23;;
17763;SDS011;22245;52.832;13.816;2023-04-15T14:22:15;11.95;;;8.57;;
17763;SDS011;22245;52.832;13.816;2023-04-15T14:25:39;10.60;;;8.57;;
17763;SDS011;22245;52.832;13.816;2023-04-15T14:29:01;8.57;;;7.63;;
17763;SDS011;22245;52.832;13.816;2023-04-15T14:32:23;11.45;;;8.02;;
17763;SDS011;22245;52.832;13.816;2023-04-15T14:35:45;10.98;;;7.78;;
17763;SDS011;22245;52.832;13.816;2023-04-15T14:39:07;9.35;;;7.90;;
17763;SDS011;22245;52.832;13.816;2023-04-15T14:42:30;10.00;;;8.02;;
17763;SDS011;22245;52.832;13.816;2023-04-15T14:45:52;11.48;;;8.40;;
17763;SDS011;22245;52.832;13.816;2023-04-15T14:49:14;11.18;;;8.35;;
17763;SDS011;22245;52.832;13.816;2023-04-15T14:52:36;10.30;;;7.93;;
17763;SDS011;22245;52.832;13.816;2023-04-15T14:55:58;9.93;;;7.70;;
17763;SDS011;22245;52.832;13.816;2023-04-15T14:59:22;8.85;;;7.80;;
17763;SDS011;22245;52.832;13.816;2023-04-15T15:02:44;9.90;;;7.38;;
17763;SDS011;22245;52.832;13.816;2023-04-15T15:06:06;8.32;;;6.80;;
17763;SDS011;22245;52.832;13.816;2023-04-15T15:09:28;9.00;;;7.50;;
17763;SDS011;22245;52.832;13.816;2023-04-15T15:12:51;9.13;;;7.20;;
17763;SDS011;22245;52.832;13.816;2023-04-15T15:16:14;9.77;;;7.45;;
17763;SDS011;22245;52.832;13.816;2023-04-15T15:19:36;8.48;;;6.38;;
17763;SDS011;22245;52.832;13.816;2023-04-15T15:22:59;6.60;;;5.82;;
17763;SDS011;22245;52.832;13.816;2023-04-15T15:26:20;7.63;;;6.20;;
17763;SDS011;22245;52.832;13.816;2023-04-15T15:29:43;7.82;;;5.93;;
17763;SDS011;22245;52.832;13.816;2023-04-15T15:33:06;7.60;;;6.30;;
17763;SDS011;22245;52.832;13.816;2023-04-15T15:36:28;7.93;;;6.40;;
17763;SDS011;22245;52.832;13.816;2023-04-15T15:39:50;8.55;;;7.38;;
17763;SDS011;22245;52.832;13.816;2023-04-15T15:43:13;8.20;;;6.85;;
17763;SDS011;22245;52.832;13.816;2023-04-15T15:46:35;7.97;;;7.18;;
17763;SDS011;22245;52.832;13.816;2023-04-15T15:50:00;8.85;;;7.65;;
17763;SDS011;22245;52.832;13.816;2023-04-15T15:53:25;9.32;;;7.88;;
17763;SDS011;22245;52.832;13.816;2023-04-15T15:56:47;8.70;;;7.80;;
17763;SDS011;22245;52.832;13.816;2023-04-15T16:00:10;8.90;;;7.75;;
17763;SDS011;22245;52.832;13.816;2023-04-15T16:03:32;9.70;;;8.02;;
17763;SDS011;22245;52.832;13.816;2023-04-15T16:06:55;9.20;;;7.88;;
17763;SDS011;22245;52.832;13.816;2023-04-15T16:10:17;10.95;;;8.93;;
17763;SDS011;22245;52.832;13.816;2023-04-15T16:13:39;10.57;;;8.60;;
17763;SDS011;22245;52.832;13.816;2023-04-15T16:17:01;12.93;;;10.02;;
17763;SDS011;22245;52.832;13.816;2023-04-15T16:20:23;11.25;;;9.63;;
17763;SDS011;22245;52.832;13.816;2023-04-15T16:23:46;11.60;;;10.00;;
17763;SDS011;22245;52.832;13.816;2023-04-15T16:27:08;14.70;;;11.50;;
17763;SDS011;22245;52.832;13.816;2023-04-15T16:30:35;21.13;;;16.02;;
17763;SDS011;22245;52.832;13.816;2023-04-15T16:33:57;15.60;;;12.20;;
17763;SDS011;22245;52.832;13.816;2023-04-15T16:37:19;14.40;;;11.73;;
17763;SDS011;22245;52.832;13.816;2023-04-15T16:40:43;15.27;;;12.65;;
17763;SDS011;22245;52.832;13.816;2023-04-15T16:44:05;15.77;;;13.30;;
17763;SDS011;22245;52.832;13.816;2023-04-15T16:47:28;16.83;;;12.98;;
17763;SDS011;22245;52.832;13.816;2023-04-15T16:50:50;15.35;;;12.88;;
17763;SDS011;22245;52.832;13.816;2023-04-15T16:54:12;14.27;;;12.02;;
17763;SDS011;22245;52.832;13.816;2023-04-15T16:57:35;16.75;;;13.32;;
17763;SDS011;22245;52.832;13.816;2023-04-15T17:01:16;15.82;;;12.30;;
17763;SDS011;22245;52.832;13.816;2023-04-15T17:04:38;14.52;;;12.38;;
17763;SDS011;22245;52.832;13.816;2023-04-15T17:08:01;17.17;;;12.95;;
17763;SDS011;22245;52.832;13.816;2023-04-15T17:11:23;15.95;;;12.77;;
17763;SDS011;22245;52.832;13.816;2023-04-15T17:14:46;15.98;;;12.68;;
17763;SDS011;22245;52.832;13.816;2023-04-15T17:18:08;17.42;;;13.55;;
17763;SDS011;22245;52.832;13.816;2023-04-15T17:21:31;15.35;;;12.43;;
17763;SDS011;22245;52.832;13.816;2023-04-15T17:24:52;16.38;;;12.27;;
17763;SDS011;22245;52.832;13.816;2023-04-15T17:28:14;17.90;;;12.70;;
17763;SDS011;22245;52.832;13.816;2023-04-15T17:31:37;17.10;;;12.82;;
17763;SDS011;22245;52.832;13.816;2023-04-15T17:34:59;16.63;;;12.80;;
17763;SDS011;22245;52.832;13.816;2023-04-15T17:38:22;17.25;;;13.63;;
17763;SDS011;22245;52.832;13.816;2023-04-15T17:41:44;16.00;;;12.35;;
17763;SDS011;22245;52.832;13.816;2023-04-15T17:45:05;17.48;;;13.95;;
17763;SDS011;22245;52.832;13.816;2023-04-15T17:48:29;17.40;;;13.93;;
17763;SDS011;22245;52.832;13.816;2023-04-15T17:51:51;17.27;;;13.82;;
17763;SDS011;22245;52.832;13.816;2023-04-15T17:55:14;17.50;;;13.90;;
17763;SDS011;22245;52.832;13.816;2023-04-15T17:58:36;16.88;;;13.93;;
17763;SDS011;22245;52.832;13.816;2023-04-15T18:01:58;19.13;;;14.18;;
17763;SDS011;22245;52.832;13.816;2023-04-15T18:05:22;19.02;;;14.35;;
17763;SDS011;22245;52.832;13.816;2023-04-15T18:08:43;17.75;;;13.77;;
17763;SDS011;22245;52.832;13.816;2023-04-15T18:12:05;15.15;;;12.15;;
17763;SDS011;22245;52.832;13.816;2023-04-15T18:15:28;19.40;;;13.48;;
17763;SDS011;22245;52.832;13.816;2023-04-15T18:18:51;16.92;;;12.50;;
17763;SDS011;22245;52.832;13.816;2023-04-15T18:22:14;16.88;;;12.75;;
17763;SDS011;22245;52.832;13.816;2023-04-15T18:25:35;16.80;;;11.98;;
17763;SDS011;22245;52.832;13.816;2023-04-15T18:28:57;17.38;;;11.70;;
17763;SDS011;22245;52.832;13.816;2023-04-15T18:32:19;15.65;;;11.75;;
17763;SDS011;22245;52.832;13.816;2023-04-15T18:35:40;17.73;;;13.02;;
17763;SDS011;22245;52.832;13.816;2023-04-15T18:39:04;16.30;;;12.50;;
17763;SDS011;22245;52.832;13.816;2023-04-15T18:42:26;15.43;;;11.93;;
17763;SDS011;22245;52.832;13.816;2023-04-15T18:45:48;16.08;;;12.68;;
17763;SDS011;22245;52.832;13.816;2023-04-15T18:49:11;15.05;;;11.57;;
17763;SDS011;22245;52.832;13.816;2023-04-15T18:52:33;13.90;;;10.93;;
17763;SDS011;22245;52.832;13.816;2023-04-15T18:55:56;17.27;;;11.82;;
17763;SDS011;22245;52.832;13.816;2023-04-15T18:59:20;15.35;;;11.60;;
17763;SDS011;22245;52.832;13.816;2023-04-15T19:02:49;15.75;;;11.98;;
17763;SDS011;22245;52.832;13.816;2023-04-15T19:06:11;17.50;;;11.27;;
17763;SDS011;22245;52.832;13.816;2023-04-15T19:09:34;16.90;;;11.73;;
17763;SDS011;22245;52.832;13.816;2023-04-15T19:12:57;14.85;;;11.43;;
17763;SDS011;22245;52.832;13.816;2023-04-15T19:16:18;15.40;;;11.70;;
17763;SDS011;22245;52.832;13.816;2023-04-15T19:19:40;16.83;;;11.88;;
17763;SDS011;22245;52.832;13.816;2023-04-15T19:23:02;17.73;;;12.27;;
17763;SDS011;22245;52.832;13.816;2023-04-15T19:26:24;16.67;;;11.70;;
17763;SDS011;22245;52.832;13.816;2023-04-15T19:29:48;15.55;;;11.52;;
17763;SDS011;22245;52.832;13.816;2023-04-15T19:33:10;15.38;;;11.98;;
17763;SDS011;22245;52.832;13.816;2023-04-15T19:36:32;16.58;;;12.27;;
17763;SDS011;22245;52.832;13.816;2023-04-15T19:39:54;16.67;;;12.30;;